sensor_id;sensor_type;location;lat;lon;timestamp;temperature;humidity
23495;DHT22;26107;50.832;2.950;2023-01-29T00:12:25;4.20;99.90
23495;DHT22;26107;50.832;2.950;2023-01-29T00:27:26;4.00;99.90
23495;DHT22;26107;50.832;2.950;2023-01-29T00:42:27;3.90;99.90
23495;DHT22;26107;50.832;2.950;2023-01-29T00:57:46;4.00;99.90
23495;DHT22;26107;50.832;2.950;2023-01-29T01:12:58;4.10;99.90
23495;DHT22;26107;50.832;2.950;2023-01-29T01:27:59;3.90;99.90
23495;DHT22;26107;50.832;2.950;2023-01-29T01:43:00;4.20;99.90
23495;DHT22;26107;50.832;2.950;2023-01-29T01:58:09;4.00;99.90
23495;DHT22;26107;50.832;2.950;2023-01-29T02:13:11;4.10;99.90
23495;DHT22;26107;50.832;2.950;2023-01-29T02:28:36;4.20;99.90
23495;DHT22;26107;50.832;2.950;2023-01-29T02:43:46;3.90;99.90
23495;DHT22;26107;50.832;2.950;2023-01-29T02:59:11;4.00;99.90
23495;DHT22;26107;50.832;2.950;2023-01-29T03:14:28;4.10;99.90
23495;DHT22;26107;50.832;2.950;2023-01-29T03:29:51;4.10;99.90
23495;DHT22;26107;50.832;2.950;2023-01-29T03:45:35;4.00;99.90
23495;DHT22;26107;50.832;2.950;2023-01-29T04:00:41;4.40;99.90
23495;DHT22;26107;50.832;2.950;2023-01-29T04:15:53;4.20;99.90
23495;DHT22;26107;50.832;2.950;2023-01-29T04:31:03;4.70;99.90
23495;DHT22;26107;50.832;2.950;2023-01-29T04:46:18;4.50;99.90
23495;DHT22;26107;50.832;2.950;2023-01-29T05:01:21;4.50;99.90
23495;DHT22;26107;50.832;2.950;2023-01-29T05:16:27;4.60;99.90
23495;DHT22;26107;50.832;2.950;2023-01-29T05:31:29;4.80;99.90
23495;DHT22;26107;50.832;2.950;2023-01-29T05:46:30;4.40;99.90
23495;DHT22;26107;50.832;2.950;2023-01-29T06:01:31;4.60;99.90
23495;DHT22;26107;50.832;2.950;2023-01-29T06:16:32;4.60;99.90
23495;DHT22;26107;50.832;2.950;2023-01-29T06:31:33;4.60;99.90
23495;DHT22;26107;50.832;2.950;2023-01-29T06:46:33;4.60;99.90
23495;DHT22;26107;50.832;2.950;2023-01-29T07:01:34;4.70;99.90
23495;DHT22;26107;50.832;2.950;2023-01-29T07:16:40;4.50;99.90
23495;DHT22;26107;50.832;2.950;2023-01-29T07:31:40;4.60;99.90
23495;DHT22;26107;50.832;2.950;2023-01-29T07:46:41;4.80;99.90
23495;DHT22;26107;50.832;2.950;2023-01-29T08:01:41;5.00;99.90
23495;DHT22;26107;50.832;2.950;2023-01-29T08:16:42;4.50;99.90
23495;DHT22;26107;50.832;2.950;2023-01-29T08:31:43;4.40;99.90
23495;DHT22;26107;50.832;2.950;2023-01-29T08:46:43;4.50;99.90
23495;DHT22;26107;50.832;2.950;2023-01-29T09:01:44;4.50;99.90
23495;DHT22;26107;50.832;2.950;2023-01-29T09:16:44;4.30;99.90
23495;DHT22;26107;50.832;2.950;2023-01-29T09:31:45;4.50;99.90
23495;DHT22;26107;50.832;2.950;2023-01-29T09:46:46;4.40;99.90
23495;DHT22;26107;50.832;2.950;2023-01-29T10:32:25;4.30;99.90
23495;DHT22;26107;50.832;2.950;2023-01-29T11:02:36;4.80;99.90
23495;DHT22;26107;50.832;2.950;2023-01-29T11:17:36;4.50;99.90
23495;DHT22;26107;50.832;2.950;2023-01-29T11:32:37;4.80;99.90
23495;DHT22;26107;50.832;2.950;2023-01-29T11:47:37;4.90;99.90
23495;DHT22;26107;50.832;2.950;2023-01-29T12:02:41;4.70;99.90
23495;DHT22;26107;50.832;2.950;2023-01-29T12:17:52;4.90;99.90
23495;DHT22;26107;50.832;2.950;2023-01-29T12:48:33;5.30;99.90
23495;DHT22;26107;50.832;2.950;2023-01-29T13:03:48;5.40;99.90
23495;DHT22;26107;50.832;2.950;2023-01-29T13:18:55;5.60;99.90
23495;DHT22;26107;50.832;2.950;2023-01-29T13:34:14;5.60;99.90
23495;DHT22;26107;50.832;2.950;2023-01-29T14:04:30;5.70;99.90
23495;DHT22;26107;50.832;2.950;2023-01-29T14:19:31;5.90;99.90
23495;DHT22;26107;50.832;2.950;2023-01-29T14:34:49;5.60;99.90
23495;DHT22;26107;50.832;2.950;2023-01-29T14:49:55;5.90;99.90
23495;DHT22;26107;50.832;2.950;2023-01-29T15:04:58;5.80;99.90
23495;DHT22;26107;50.832;2.950;2023-01-29T15:19:59;5.80;99.90
23495;DHT22;26107;50.832;2.950;2023-01-29T15:35:09;5.90;99.90
23495;DHT22;26107;50.832;2.950;2023-01-29T15:50:10;6.10;99.90
23495;DHT22;26107;50.832;2.950;2023-01-29T16:05:17;6.00;99.90
23495;DHT22;26107;50.832;2.950;2023-01-29T16:20:39;6.10;99.90
23495;DHT22;26107;50.832;2.950;2023-01-29T16:35:41;6.10;99.90
23495;DHT22;26107;50.832;2.950;2023-01-29T16:50:42;5.80;99.90
23495;DHT22;26107;50.832;2.950;2023-01-29T17:05:43;5.70;99.90
23495;DHT22;26107;50.832;2.950;2023-01-29T17:20:45;5.80;99.90
23495;DHT22;26107;50.832;2.950;2023-01-29T17:35:46;5.80;99.90
23495;DHT22;26107;50.832;2.950;2023-01-29T17:50:48;5.90;99.90
23495;DHT22;26107;50.832;2.950;2023-01-29T18:05:50;5.70;99.90
23495;DHT22;26107;50.832;2.950;2023-01-29T18:20:51;5.70;99.90
23495;DHT22;26107;50.832;2.950;2023-01-29T18:35:51;5.60;99.90
23495;DHT22;26107;50.832;2.950;2023-01-29T18:50:54;5.60;99.90
23495;DHT22;26107;50.832;2.950;2023-01-29T19:06:00;5.70;99.90
23495;DHT22;26107;50.832;2.950;2023-01-29T19:21:09;5.60;99.90
23495;DHT22;26107;50.832;2.950;2023-01-29T19:36:10;5.50;99.90
23495;DHT22;26107;50.832;2.950;2023-01-29T19:51:12;5.70;99.90
23495;DHT22;26107;50.832;2.950;2023-01-29T20:06:16;5.70;99.90
23495;DHT22;26107;50.832;2.950;2023-01-29T20:21:19;5.80;99.90
23495;DHT22;26107;50.832;2.950;2023-01-29T20:36:22;6.00;99.90
23495;DHT22;26107;50.832;2.950;2023-01-29T20:51:23;6.00;99.90
23495;DHT22;26107;50.832;2.950;2023-01-29T21:06:24;6.10;99.90
23495;DHT22;26107;50.832;2.950;2023-01-29T21:21:25;6.30;99.90
23495;DHT22;26107;50.832;2.950;2023-01-29T21:36:26;6.40;99.90
23495;DHT22;26107;50.832;2.950;2023-01-29T21:51:26;6.30;99.90
23495;DHT22;26107;50.832;2.950;2023-01-29T22:06:27;6.50;99.90
23495;DHT22;26107;50.832;2.950;2023-01-29T22:21:27;6.70;99.90
23495;DHT22;26107;50.832;2.950;2023-01-29T22:36:28;6.80;99.90
23495;DHT22;26107;50.832;2.950;2023-01-29T22:51:29;6.80;99.90
23495;DHT22;26107;50.832;2.950;2023-01-29T23:06:29;6.90;99.90
23495;DHT22;26107;50.832;2.950;2023-01-29T23:21:30;6.90;99.90
23495;DHT22;26107;50.832;2.950;2023-01-29T23:36:30;6.70;99.90
23495;DHT22;26107;50.832;2.950;2023-01-29T23:51:31;6.90;99.90
